createdAt,value
2022-11-26T00:00:32.575Z,0
2022-11-26T00:01:32.596Z,0
2022-11-26T00:02:32.668Z,0
2022-11-26T00:03:32.636Z,0
2022-11-26T00:04:32.646Z,0
2022-11-26T00:05:32.606Z,0
2022-11-26T00:06:32.567Z,0
2022-11-26T00:07:32.914Z,0
2022-11-26T00:08:32.633Z,0
2022-11-26T00:09:32.599Z,0
2022-11-26T00:10:32.587Z,0
2022-11-26T00:11:32.584Z,0
2022-11-26T00:12:32.603Z,0
2022-11-26T00:13:32.656Z,0
2022-11-26T00:14:32.592Z,0
2022-11-26T00:15:32.575Z,0
2022-11-26T00:16:32.765Z,0
2022-11-26T00:17:32.633Z,0
2022-11-26T00:18:32.596Z,0
2022-11-26T00:19:32.589Z,0
2022-11-26T00:20:32.600Z,0
2022-11-26T00:21:32.590Z,0
2022-11-26T00:22:32.599Z,0
2022-11-26T00:23:32.577Z,0
2022-11-26T00:24:32.602Z,0
2022-11-26T00:25:32.570Z,0
2022-11-26T00:26:32.590Z,0
2022-11-26T00:27:32.606Z,0
2022-11-26T00:28:32.630Z,0
2022-11-26T00:29:32.611Z,0
2022-11-26T00:30:32.616Z,0
2022-11-26T00:31:32.621Z,0
2022-11-26T00:32:32.613Z,0
2022-11-26T00:33:32.649Z,0
2022-11-26T00:34:32.605Z,0
2022-11-26T00:35:32.584Z,0
2022-11-26T00:36:32.582Z,0
2022-11-26T00:37:32.599Z,0
2022-11-26T00:38:32.609Z,0
2022-11-26T00:39:32.612Z,0
2022-11-26T00:40:32.594Z,0
2022-11-26T00:41:32.575Z,0
2022-11-26T00:42:32.783Z,0
2022-11-26T00:43:32.553Z,0
2022-11-26T00:44:32.603Z,0
2022-11-26T00:45:32.677Z,0
2022-11-26T00:46:32.586Z,0
2022-11-26T00:47:32.586Z,0
2022-11-26T00:48:32.625Z,0
2022-11-26T00:49:32.606Z,0
2022-11-26T00:50:32.666Z,0
2022-11-26T00:51:32.587Z,0
2022-11-26T00:52:32.585Z,0
2022-11-26T00:53:32.576Z,0
2022-11-26T00:54:32.616Z,0
2022-11-26T00:55:32.549Z,0
2022-11-26T00:56:37.627Z,0
2022-11-26T00:57:32.592Z,0
2022-11-26T00:58:32.579Z,0
2022-11-26T00:59:32.581Z,0
2022-11-26T01:00:32.584Z,0
2022-11-26T01:01:32.652Z,0
2022-11-26T01:02:32.705Z,0
2022-11-26T01:03:32.540Z,0
2022-11-26T01:04:32.612Z,0
2022-11-26T01:05:32.602Z,0
2022-11-26T01:06:32.579Z,0
2022-11-26T01:07:32.641Z,0
2022-11-26T01:08:32.548Z,0
2022-11-26T01:09:32.593Z,0
2022-11-26T01:10:32.558Z,0
2022-11-26T01:11:32.678Z,0
2022-11-26T01:12:32.554Z,0
2022-11-26T01:13:32.571Z,0
2022-11-26T01:14:32.572Z,0
2022-11-26T01:15:32.608Z,0
2022-11-26T01:16:32.726Z,0
2022-11-26T01:17:32.599Z,0
2022-11-26T01:18:32.568Z,0
2022-11-26T01:19:32.576Z,0
2022-11-26T01:20:32.673Z,0
2022-11-26T01:21:32.592Z,0
2022-11-26T01:22:32.646Z,0
2022-11-26T01:23:32.569Z,0
2022-11-26T01:24:32.596Z,0
2022-11-26T01:25:32.603Z,0
2022-11-26T01:26:32.561Z,0
2022-11-26T01:27:32.587Z,0
2022-11-26T01:28:32.596Z,0
2022-11-26T01:29:32.584Z,0
2022-11-26T01:30:32.580Z,0
2022-11-26T01:31:32.710Z,0
2022-11-26T01:32:32.581Z,0
2022-11-26T01:33:32.647Z,0
2022-11-26T01:34:32.538Z,0
2022-11-26T01:35:32.601Z,0
2022-11-26T01:36:32.577Z,0
2022-11-26T01:37:32.597Z,0
2022-11-26T01:38:32.568Z,0
2022-11-26T01:39:32.613Z,0
2022-11-26T01:40:32.762Z,0
2022-11-26T01:41:32.706Z,0
2022-11-26T01:42:32.665Z,0
2022-11-26T01:43:32.703Z,0
2022-11-26T01:44:32.835Z,0
2022-11-26T01:45:32.789Z,0
2022-11-26T01:46:32.764Z,0
2022-11-26T01:47:32.695Z,0
2022-11-26T01:48:32.705Z,0
2022-11-26T01:49:32.582Z,0
2022-11-26T01:50:32.569Z,0
2022-11-26T01:51:32.577Z,0
2022-11-26T01:52:32.573Z,0
2022-11-26T01:53:32.573Z,0
2022-11-26T01:54:32.561Z,0
2022-11-26T01:55:32.601Z,0
2022-11-26T01:56:32.578Z,0
2022-11-26T01:57:32.606Z,0
2022-11-26T01:58:36.850Z,0
2022-11-26T01:59:32.577Z,0
2022-11-26T02:00:32.619Z,0
2022-11-26T02:01:32.657Z,0
2022-11-26T02:02:32.599Z,0
2022-11-26T02:03:32.580Z,0
2022-11-26T02:04:32.584Z,0
2022-11-26T02:05:32.611Z,0
2022-11-26T02:06:32.612Z,0
2022-11-26T02:07:32.682Z,0
2022-11-26T02:08:32.585Z,0
2022-11-26T02:09:32.585Z,0
2022-11-26T02:10:32.568Z,0
2022-11-26T02:11:32.570Z,0
2022-11-26T02:12:32.577Z,0
2022-11-26T02:13:32.594Z,0
2022-11-26T02:14:32.566Z,0
2022-11-26T02:15:32.571Z,0
2022-11-26T02:16:32.661Z,0
2022-11-26T02:17:32.714Z,0
2022-11-26T02:18:32.568Z,0
2022-11-26T02:19:32.544Z,0
2022-11-26T02:20:32.608Z,0
2022-11-26T02:21:32.581Z,0
2022-11-26T02:22:32.562Z,0
2022-11-26T02:23:32.562Z,0
2022-11-26T02:24:32.577Z,0
2022-11-26T02:25:32.568Z,0
2022-11-26T02:26:32.575Z,0
2022-11-26T02:27:32.552Z,0
2022-11-26T02:28:32.588Z,0
2022-11-26T02:29:32.555Z,0
2022-11-26T02:30:32.758Z,0
2022-11-26T02:31:32.649Z,0
2022-11-26T02:32:32.593Z,0
2022-11-26T02:33:32.756Z,0
2022-11-26T02:34:37.285Z,0
2022-11-26T02:35:32.532Z,0
2022-11-26T02:36:32.585Z,0
2022-11-26T02:37:32.573Z,0
2022-11-26T02:38:32.597Z,0
2022-11-26T02:39:32.573Z,0
2022-11-26T02:40:32.572Z,0
2022-11-26T02:41:32.557Z,0
2022-11-26T02:42:32.567Z,0
2022-11-26T02:43:32.573Z,0
2022-11-26T02:44:32.569Z,0
2022-11-26T02:45:32.648Z,0
2022-11-26T02:46:32.575Z,0
2022-11-26T02:47:32.553Z,0
2022-11-26T02:48:32.588Z,0
2022-11-26T02:49:32.567Z,0
2022-11-26T02:50:32.640Z,0
2022-11-26T02:51:35.007Z,0
2022-11-26T02:52:32.717Z,0
2022-11-26T02:53:32.567Z,0
2022-11-26T02:54:32.582Z,0
2022-11-26T02:55:32.560Z,0
2022-11-26T02:56:32.714Z,0
2022-11-26T02:57:32.569Z,0
2022-11-26T02:58:32.587Z,0
2022-11-26T02:59:32.547Z,0
2022-11-26T03:00:32.571Z,0
2022-11-26T03:01:32.708Z,0
2022-11-26T03:02:32.571Z,0
2022-11-26T03:03:32.606Z,0
2022-11-26T03:04:32.571Z,0
2022-11-26T03:05:32.562Z,0
2022-11-26T03:06:32.556Z,0
2022-11-26T03:07:32.638Z,0
2022-11-26T03:08:32.516Z,0
2022-11-26T03:09:32.565Z,0
2022-11-26T03:10:32.748Z,0
2022-11-26T03:11:32.787Z,0
2022-11-26T03:12:32.837Z,0
2022-11-26T03:13:32.718Z,0
2022-11-26T03:14:32.697Z,0
2022-11-26T03:15:32.699Z,0
2022-11-26T03:16:32.983Z,0
2022-11-26T03:17:32.604Z,0
2022-11-26T03:18:32.726Z,0
2022-11-26T03:19:32.666Z,0
2022-11-26T03:20:32.728Z,0
2022-11-26T03:21:32.652Z,0
2022-11-26T03:22:32.627Z,0
2022-11-26T03:23:32.687Z,0
2022-11-26T03:24:32.716Z,0
2022-11-26T03:25:32.682Z,0
2022-11-26T03:26:32.567Z,0
2022-11-26T03:27:32.585Z,0
2022-11-26T03:28:32.585Z,0
2022-11-26T03:29:32.612Z,0
2022-11-26T03:30:32.699Z,0
2022-11-26T03:31:32.753Z,0
2022-11-26T03:32:32.696Z,0
2022-11-26T03:33:32.696Z,0
2022-11-26T03:34:32.609Z,0
2022-11-26T03:35:32.563Z,0
2022-11-26T03:36:32.569Z,0
2022-11-26T03:37:32.597Z,0
2022-11-26T03:38:32.540Z,0
2022-11-26T03:39:32.575Z,0
2022-11-26T03:40:32.833Z,0
2022-11-26T03:41:32.642Z,0
2022-11-26T03:42:32.667Z,0
2022-11-26T03:43:32.646Z,0
2022-11-26T03:44:32.619Z,0
2022-11-26T03:45:32.658Z,0
2022-11-26T03:46:32.536Z,0
2022-11-26T03:47:32.572Z,0
2022-11-26T03:48:32.552Z,0
2022-11-26T03:49:32.576Z,0
2022-11-26T03:50:32.553Z,0
2022-11-26T03:51:32.601Z,0
2022-11-26T03:52:32.546Z,0
2022-11-26T03:53:32.573Z,0
2022-11-26T03:54:32.604Z,0
2022-11-26T03:55:32.591Z,0
2022-11-26T03:56:32.584Z,0
2022-11-26T03:57:32.612Z,0
2022-11-26T03:58:32.590Z,0
2022-11-26T03:59:32.568Z,0
2022-11-26T04:00:32.548Z,0
2022-11-26T04:01:32.653Z,0
2022-11-26T04:02:32.553Z,0
2022-11-26T04:03:32.619Z,0
2022-11-26T04:04:32.565Z,0
2022-11-26T04:05:32.564Z,0
2022-11-26T04:06:32.520Z,0
2022-11-26T04:07:32.600Z,0
2022-11-26T04:08:32.575Z,0
2022-11-26T04:09:32.687Z,0
2022-11-26T04:10:32.562Z,0
2022-11-26T04:11:32.569Z,0
2022-11-26T04:12:32.669Z,0
2022-11-26T04:13:32.566Z,0
2022-11-26T04:14:32.574Z,0
2022-11-26T04:15:32.568Z,0
2022-11-26T04:16:32.698Z,0
2022-11-26T04:17:32.574Z,0
2022-11-26T04:18:32.590Z,0
2022-11-26T04:19:32.540Z,0
2022-11-26T04:20:32.563Z,0
2022-11-26T04:21:32.558Z,0
2022-11-26T04:22:32.529Z,0
2022-11-26T04:23:32.538Z,0
2022-11-26T04:24:32.574Z,0
2022-11-26T04:25:32.560Z,0
2022-11-26T04:26:32.578Z,0
2022-11-26T04:27:32.536Z,0
2022-11-26T04:28:32.570Z,0
2022-11-26T04:29:32.565Z,0
2022-11-26T04:30:32.572Z,0
2022-11-26T04:31:32.563Z,0
2022-11-26T04:32:32.619Z,0
2022-11-26T04:33:32.591Z,0
2022-11-26T04:34:32.566Z,0
2022-11-26T04:35:32.625Z,0
2022-11-26T04:36:32.572Z,0
2022-11-26T04:37:32.573Z,0
2022-11-26T04:38:32.573Z,0
2022-11-26T04:39:32.557Z,0
2022-11-26T04:40:32.554Z,0
2022-11-26T04:41:32.574Z,0
2022-11-26T04:42:32.551Z,0
2022-11-26T04:43:32.548Z,0
2022-11-26T04:44:32.574Z,0
2022-11-26T04:45:32.624Z,0
2022-11-26T04:46:32.550Z,0
2022-11-26T04:47:32.550Z,0
2022-11-26T04:48:32.596Z,0
2022-11-26T04:49:32.580Z,0
2022-11-26T04:50:32.568Z,0
2022-11-26T04:51:32.539Z,0
2022-11-26T04:52:32.568Z,0
2022-11-26T04:53:32.582Z,0
2022-11-26T04:54:32.553Z,0
2022-11-26T04:55:32.545Z,0
2022-11-26T04:56:32.562Z,0
2022-11-26T04:57:32.621Z,0
2022-11-26T04:58:32.560Z,0
2022-11-26T04:59:32.515Z,0
2022-11-26T05:00:32.560Z,0
2022-11-26T05:01:32.596Z,0
2022-11-26T05:02:32.602Z,0
2022-11-26T05:03:32.569Z,0
2022-11-26T05:04:32.587Z,0
2022-11-26T05:05:32.564Z,0
2022-11-26T05:06:32.564Z,0
2022-11-26T05:07:32.647Z,0
2022-11-26T05:08:32.589Z,0
2022-11-26T05:09:32.635Z,0
2022-11-26T05:10:32.560Z,0
2022-11-26T05:11:32.541Z,0
2022-11-26T05:12:32.578Z,0
2022-11-26T05:13:32.585Z,0
2022-11-26T05:14:32.597Z,0
2022-11-26T05:15:32.546Z,0
2022-11-26T05:16:32.626Z,0
2022-11-26T05:17:32.613Z,0
2022-11-26T05:18:32.555Z,0
2022-11-26T05:19:32.546Z,0
2022-11-26T05:20:32.569Z,0
2022-11-26T05:21:32.548Z,0
2022-11-26T05:22:32.579Z,0
2022-11-26T05:23:32.550Z,0
2022-11-26T05:24:32.574Z,0
2022-11-26T05:25:32.618Z,0
2022-11-26T05:26:32.568Z,0
2022-11-26T05:27:32.529Z,0
2022-11-26T05:28:32.571Z,0
2022-11-26T05:29:32.630Z,0
2022-11-26T05:30:32.570Z,0
2022-11-26T05:31:32.604Z,0
2022-11-26T05:32:32.571Z,0
2022-11-26T05:33:32.529Z,0
2022-11-26T05:34:32.559Z,0
2022-11-26T05:35:32.517Z,0
2022-11-26T05:36:32.548Z,0
2022-11-26T05:37:32.680Z,0
2022-11-26T05:38:32.569Z,0
2022-11-26T05:39:32.540Z,0
2022-11-26T05:40:32.574Z,0
2022-11-26T05:41:32.564Z,0
2022-11-26T05:42:32.612Z,0
2022-11-26T05:43:32.560Z,0
2022-11-26T05:44:32.549Z,0
2022-11-26T05:45:32.629Z,0
2022-11-26T05:46:32.581Z,0
2022-11-26T05:47:32.537Z,0
2022-11-26T05:48:32.561Z,0
2022-11-26T05:49:32.848Z,0
2022-11-26T05:50:32.565Z,0
2022-11-26T05:51:32.522Z,0
2022-11-26T05:52:32.549Z,0
2022-11-26T05:53:32.565Z,0
2022-11-26T05:54:32.598Z,0
2022-11-26T05:55:32.537Z,0
2022-11-26T05:56:32.558Z,0
2022-11-26T05:57:32.567Z,0
2022-11-26T05:58:32.567Z,0
2022-11-26T05:59:32.572Z,0
2022-11-26T06:00:32.617Z,0
2022-11-26T06:01:32.556Z,0
2022-11-26T06:02:32.741Z,0
2022-11-26T06:03:32.612Z,0
2022-11-26T06:04:32.567Z,0
2022-11-26T06:05:32.567Z,0
2022-11-26T06:06:32.553Z,0
2022-11-26T06:07:32.580Z,0
2022-11-26T06:08:32.594Z,0
2022-11-26T06:09:32.580Z,0
2022-11-26T06:10:32.554Z,0
2022-11-26T06:11:32.544Z,0
2022-11-26T06:12:32.522Z,0
2022-11-26T06:13:32.592Z,0
2022-11-26T06:14:32.639Z,0
2022-11-26T06:15:32.567Z,0
2022-11-26T06:16:32.625Z,0
2022-11-26T06:17:32.567Z,0
2022-11-26T06:18:32.612Z,0
2022-11-26T06:19:32.539Z,0
2022-11-26T06:20:32.529Z,0
2022-11-26T06:21:32.584Z,0
2022-11-26T06:22:32.619Z,0
2022-11-26T06:23:32.554Z,0
2022-11-26T06:24:32.532Z,0
2022-11-26T06:25:32.547Z,0
2022-11-26T06:26:32.541Z,0
2022-11-26T06:27:32.550Z,0
2022-11-26T06:28:32.548Z,0
2022-11-26T06:29:32.567Z,0
2022-11-26T06:30:32.528Z,0
2022-11-26T06:31:32.665Z,0
2022-11-26T06:32:32.559Z,0
2022-11-26T06:33:32.555Z,0
2022-11-26T06:34:32.514Z,0
2022-11-26T06:35:32.602Z,0
2022-11-26T06:36:32.549Z,0
2022-11-26T06:37:32.569Z,0
2022-11-26T06:38:32.526Z,0
2022-11-26T06:39:32.526Z,0
2022-11-26T06:40:32.540Z,0
2022-11-26T06:41:32.641Z,0
2022-11-26T06:42:32.529Z,0
2022-11-26T06:43:32.534Z,0
2022-11-26T06:44:33.594Z,0
2022-11-26T06:45:32.601Z,0
2022-11-26T06:46:32.530Z,0
2022-11-26T06:47:32.576Z,0
2022-11-26T06:48:32.548Z,0
2022-11-26T06:49:32.548Z,0
2022-11-26T06:50:32.538Z,0
2022-11-26T06:51:32.560Z,0
2022-11-26T06:52:32.556Z,0
2022-11-26T06:53:32.569Z,0
2022-11-26T06:54:32.620Z,0
2022-11-26T06:55:32.540Z,0
2022-11-26T06:56:32.553Z,0
2022-11-26T06:57:32.556Z,0
2022-11-26T06:58:32.537Z,0
2022-11-26T06:59:32.561Z,0
2022-11-26T07:00:32.558Z,0
2022-11-26T07:01:32.661Z,0
2022-11-26T07:02:32.587Z,0
2022-11-26T07:03:33.468Z,0
2022-11-26T07:04:32.688Z,0
2022-11-26T07:05:32.557Z,0
2022-11-26T07:06:32.534Z,0
2022-11-26T07:07:32.604Z,0
2022-11-26T07:08:32.604Z,0
2022-11-26T07:09:32.547Z,0
2022-11-26T07:10:32.533Z,0
2022-11-26T07:11:32.594Z,0
2022-11-26T07:12:32.530Z,0
2022-11-26T07:13:32.617Z,0
2022-11-26T07:14:32.555Z,0
2022-11-26T07:15:32.524Z,0
2022-11-26T07:16:32.577Z,0
2022-11-26T07:17:32.532Z,0
2022-11-26T07:18:32.544Z,0
2022-11-26T07:19:32.549Z,0
2022-11-26T07:20:32.526Z,0
2022-11-26T07:21:32.563Z,0
2022-11-26T07:22:32.570Z,0
2022-11-26T07:23:32.552Z,0
2022-11-26T07:24:32.548Z,0
2022-11-26T07:25:32.553Z,0
2022-11-26T07:26:32.560Z,0
2022-11-26T07:27:32.553Z,0
2022-11-26T07:28:32.511Z,0
2022-11-26T07:29:32.558Z,0
2022-11-26T07:30:32.552Z,0
2022-11-26T07:31:32.594Z,0
2022-11-26T07:32:32.504Z,0
2022-11-26T07:33:32.502Z,0
2022-11-26T07:34:32.558Z,0
2022-11-26T07:35:32.550Z,0
2022-11-26T07:36:32.526Z,0
2022-11-26T07:37:32.559Z,0.36
2022-11-26T07:38:32.583Z,0
2022-11-26T07:39:32.531Z,0
2022-11-26T07:40:32.525Z,0
2022-11-26T07:41:32.561Z,0
2022-11-26T07:42:32.546Z,0
2022-11-26T07:43:32.564Z,0
2022-11-26T07:44:32.549Z,0
2022-11-26T07:45:32.487Z,0
2022-11-26T07:46:32.608Z,0
2022-11-26T07:47:32.558Z,0
2022-11-26T07:48:32.601Z,0
2022-11-26T07:49:32.567Z,0
2022-11-26T07:50:32.549Z,0
2022-11-26T07:51:32.540Z,0
2022-11-26T07:52:32.558Z,0
2022-11-26T07:53:32.528Z,0
2022-11-26T07:54:32.559Z,0
2022-11-26T07:55:32.550Z,0.36
2022-11-26T07:56:32.550Z,0
2022-11-26T07:57:32.536Z,0
2022-11-26T07:58:32.737Z,0
2022-11-26T07:59:32.514Z,0
2022-11-26T08:00:32.555Z,0
2022-11-26T08:01:32.667Z,0.36
2022-11-26T08:02:32.624Z,0
2022-11-26T08:03:32.518Z,0
2022-11-26T08:04:32.526Z,0
2022-11-26T08:05:32.530Z,0.36
2022-11-26T08:06:32.570Z,0.36
2022-11-26T08:07:32.566Z,0
2022-11-26T08:08:32.476Z,0
2022-11-26T08:09:32.566Z,0
2022-11-26T08:10:32.544Z,0.36
2022-11-26T08:11:32.792Z,0.36
2022-11-26T08:12:32.661Z,0
2022-11-26T08:13:32.547Z,0
2022-11-26T08:14:32.556Z,0
2022-11-26T08:15:32.519Z,0
2022-11-26T08:16:32.635Z,0
2022-11-26T08:17:32.530Z,0
2022-11-26T08:18:32.559Z,0
2022-11-26T08:19:32.526Z,0.36
2022-11-26T08:20:32.578Z,0
2022-11-26T08:21:32.559Z,0.85
2022-11-26T08:22:32.569Z,0.36
2022-11-26T08:23:32.516Z,0
2022-11-26T08:24:32.540Z,0.85
2022-11-26T08:25:32.620Z,0
2022-11-26T08:26:37.059Z,0
2022-11-26T08:27:32.519Z,0.85
2022-11-26T08:28:32.552Z,0.36
2022-11-26T08:29:32.547Z,0.85
2022-11-26T08:30:32.549Z,0
2022-11-26T08:31:32.571Z,0.85
2022-11-26T08:32:32.627Z,0.36
2022-11-26T08:33:32.553Z,0.36
2022-11-26T08:34:32.537Z,0.36
2022-11-26T08:35:51.512Z,1.22
2022-11-26T08:36:32.620Z,0.85
2022-11-26T08:37:32.538Z,1.22
2022-11-26T08:38:32.535Z,1.22
2022-11-26T08:39:32.505Z,2.08
2022-11-26T08:40:32.587Z,1.22
2022-11-26T08:41:32.523Z,0.85
2022-11-26T08:42:32.517Z,1.22
2022-11-26T08:44:04.020Z,0.85
2022-11-26T08:44:32.603Z,1.22
2022-11-26T08:45:32.538Z,2.08
2022-11-26T08:46:32.594Z,0.85
2022-11-26T08:47:32.505Z,1.22
2022-11-26T08:48:32.546Z,1.22
2022-11-26T08:49:32.539Z,1.71
2022-11-26T08:50:32.528Z,1.71
2022-11-26T08:51:32.533Z,0.85
2022-11-26T08:52:32.601Z,1.22
2022-11-26T08:53:32.552Z,2.08
2022-11-26T08:54:32.540Z,1.22
2022-11-26T08:55:58.702Z,2.57
2022-11-26T08:56:32.618Z,1.22
2022-11-26T08:57:32.529Z,1.71
2022-11-26T08:58:32.531Z,2.08
2022-11-26T08:59:32.515Z,2.57
2022-11-26T09:00:32.552Z,2.57
2022-11-26T09:01:32.750Z,2.08
2022-11-26T09:02:32.621Z,2.08
2022-11-26T09:03:32.546Z,2.57
2022-11-26T09:04:32.542Z,2.08
2022-11-26T09:05:32.551Z,3.43
2022-11-26T09:06:32.605Z,3.79
2022-11-26T09:07:32.574Z,3.79
2022-11-26T09:08:32.538Z,3.79
2022-11-26T09:09:32.533Z,4.28
2022-11-26T09:10:32.558Z,4.28
2022-11-26T09:11:32.545Z,5.14
2022-11-26T09:12:32.517Z,5.14
2022-11-26T09:13:32.542Z,5.14
2022-11-26T09:14:32.597Z,5.14
2022-11-26T09:15:32.552Z,5.99
2022-11-26T09:16:32.572Z,5.14
2022-11-26T09:17:32.658Z,5.14
2022-11-26T09:18:32.567Z,5.63
2022-11-26T09:19:32.545Z,6.48
2022-11-26T09:20:32.526Z,5.63
2022-11-26T09:21:32.578Z,6.48
2022-11-26T09:22:32.524Z,7.34
2022-11-26T09:23:32.560Z,7.34
2022-11-26T09:24:32.482Z,6.85
2022-11-26T09:25:32.644Z,7.34
2022-11-26T09:26:32.604Z,7.7
2022-11-26T09:27:32.525Z,7.7
2022-11-26T09:28:32.514Z,7.34
2022-11-26T09:29:32.519Z,7.34
2022-11-26T09:30:32.549Z,6.85
2022-11-26T09:31:32.578Z,7.34
2022-11-26T09:32:34.300Z,6.85
2022-11-26T09:33:32.585Z,8.19
2022-11-26T09:34:32.574Z,8.19
2022-11-26T09:35:32.564Z,8.56
2022-11-26T09:36:32.518Z,7.34
2022-11-26T09:37:32.623Z,7.34
2022-11-26T09:38:32.576Z,6.85
2022-11-26T09:39:32.560Z,6.85
2022-11-26T09:40:33.483Z,6.48
2022-11-26T09:41:46.681Z,7.34
2022-11-26T09:42:50.598Z,6.85
2022-11-26T09:43:54.562Z,6.85
2022-11-26T09:44:58.559Z,8.19
2022-11-26T09:46:02.635Z,8.56
2022-11-26T09:47:13.109Z,9.05
2022-11-26T09:48:10.591Z,8.56
2022-11-26T09:49:14.553Z,8.56
2022-11-26T09:50:18.564Z,8.19
2022-11-26T09:51:22.584Z,7.7
2022-11-26T09:52:26.573Z,7.34
2022-11-26T09:53:30.544Z,8.19
2022-11-26T09:54:32.532Z,8.19
2022-11-26T09:55:32.551Z,8.56
2022-11-26T09:56:32.551Z,8.56
2022-11-26T09:57:32.520Z,8.56
2022-11-26T09:58:32.592Z,8.56
2022-11-26T09:59:32.570Z,8.56
2022-11-26T10:00:32.506Z,8.56
2022-11-26T10:01:32.574Z,8.19
2022-11-26T10:02:32.580Z,8.56
2022-11-26T10:03:32.538Z,9.05
2022-11-26T10:04:32.554Z,9.05
2022-11-26T10:05:32.528Z,9.05
2022-11-26T10:06:32.523Z,9.05
2022-11-26T10:07:32.614Z,9.05
2022-11-26T10:08:32.550Z,9.91
2022-11-26T10:09:32.546Z,10.39
2022-11-26T10:10:32.530Z,10.39
2022-11-26T10:11:32.563Z,10.39
2022-11-26T10:12:32.977Z,9.54
2022-11-26T10:13:32.524Z,8.56
2022-11-26T10:14:32.565Z,9.91
2022-11-26T10:15:32.560Z,9.91
2022-11-26T10:16:32.634Z,10.39
2022-11-26T10:17:32.544Z,11.25
2022-11-26T10:18:32.545Z,10.39
2022-11-26T10:19:32.535Z,9.91
2022-11-26T10:20:32.513Z,11.25
2022-11-26T10:21:51.745Z,10.77
2022-11-26T10:22:32.586Z,11.25
2022-11-26T10:23:32.539Z,10.39
2022-11-26T10:24:32.569Z,9.91
2022-11-26T10:25:32.527Z,10.77
2022-11-26T10:26:32.536Z,10.39
2022-11-26T10:27:32.539Z,11.25
2022-11-26T10:28:32.526Z,11.25
2022-11-26T10:29:32.530Z,12.11
2022-11-26T10:30:32.522Z,12.11
2022-11-26T10:31:32.684Z,11.62
2022-11-26T10:32:32.525Z,12.11
2022-11-26T10:33:32.590Z,12.97
2022-11-26T10:34:38.654Z,14.31
2022-11-26T10:35:32.523Z,15.53
2022-11-26T10:36:32.485Z,15.53
2022-11-26T10:37:32.555Z,16.39
2022-11-26T10:38:32.542Z,15.17
2022-11-26T10:39:32.545Z,13.33
2022-11-26T10:40:32.512Z,13.82
2022-11-26T10:41:32.535Z,13.33
2022-11-26T10:42:32.535Z,12.48
2022-11-26T10:43:32.539Z,12.48
2022-11-26T10:44:32.525Z,12.11
2022-11-26T10:45:32.558Z,11.62
2022-11-26T10:46:32.614Z,11.62
2022-11-26T10:47:32.534Z,12.97
2022-11-26T10:48:32.538Z,13.33
2022-11-26T10:49:32.542Z,12.48
2022-11-26T10:50:47.344Z,12.48
2022-11-26T10:51:32.529Z,12.11
2022-11-26T10:52:32.605Z,12.11
2022-11-26T10:53:32.545Z,11.62
2022-11-26T10:54:32.572Z,11.62
2022-11-26T10:55:32.525Z,12.11
2022-11-26T10:56:32.491Z,12.48
2022-11-26T10:57:32.532Z,12.48
2022-11-26T10:58:32.565Z,12.97
2022-11-26T10:59:32.520Z,12.48
2022-11-26T11:00:32.570Z,12.97
2022-11-26T11:01:32.604Z,12.11
2022-11-26T11:02:32.628Z,12.97
2022-11-26T11:04:06.134Z,12.48
2022-11-26T11:04:32.733Z,12.48
2022-11-26T11:05:32.583Z,12.11
2022-11-26T11:06:32.554Z,12.97
2022-11-26T11:07:32.632Z,12.11
2022-11-26T11:08:32.537Z,12.48
2022-11-26T11:09:32.556Z,11.25
2022-11-26T11:10:32.619Z,10.39
2022-11-26T11:11:32.518Z,10.77
2022-11-26T11:12:32.534Z,12.11
2022-11-26T11:13:32.560Z,11.62
2022-11-26T11:14:32.488Z,11.25
2022-11-26T11:15:32.551Z,11.25
2022-11-26T11:16:32.656Z,11.25
2022-11-26T11:17:32.517Z,10.77
2022-11-26T11:18:32.491Z,11.25
2022-11-26T11:19:32.530Z,12.11
2022-11-26T11:20:32.528Z,12.11
2022-11-26T11:21:32.549Z,12.11
2022-11-26T11:22:32.545Z,11.62
2022-11-26T11:23:52.654Z,12.11
2022-11-26T11:24:32.565Z,12.11
2022-11-26T11:25:32.572Z,12.48
2022-11-26T11:26:32.532Z,12.11
2022-11-26T11:27:32.549Z,11.25
2022-11-26T11:28:32.530Z,10.77
2022-11-26T11:29:32.566Z,12.48
2022-11-26T11:30:32.536Z,11.62
2022-11-26T11:31:32.612Z,11.62
2022-11-26T11:32:32.539Z,10.77
2022-11-26T11:33:32.538Z,11.62
2022-11-26T11:34:32.494Z,11.25
2022-11-26T11:35:32.617Z,12.11
2022-11-26T11:36:32.523Z,11.62
2022-11-26T11:37:32.512Z,11.62
2022-11-26T11:38:32.525Z,11.62
2022-11-26T11:39:32.558Z,12.11
2022-11-26T11:40:32.534Z,11.25
2022-11-26T11:41:32.567Z,11.62
2022-11-26T11:42:32.544Z,12.11
2022-11-26T11:43:32.529Z,11.62
2022-11-26T11:44:32.534Z,11.25
2022-11-26T11:45:32.604Z,9.91
2022-11-26T11:46:32.531Z,11.25
2022-11-26T11:47:32.534Z,11.25
2022-11-26T11:48:32.545Z,11.25
2022-11-26T11:49:32.519Z,11.25
2022-11-26T11:50:32.677Z,10.77
2022-11-26T11:51:32.535Z,12.48
2022-11-26T11:52:32.508Z,12.97
2022-11-26T11:53:32.526Z,12.48
2022-11-26T11:54:32.494Z,12.11
2022-11-26T11:55:32.539Z,12.11
2022-11-26T11:56:32.541Z,12.48
2022-11-26T11:57:32.524Z,11.62
2022-11-26T11:58:32.513Z,11.62
2022-11-26T11:59:32.534Z,10.77
2022-11-26T12:00:32.565Z,11.62
2022-11-26T12:01:32.534Z,11.62
2022-11-26T12:02:32.584Z,11.62
2022-11-26T12:03:32.519Z,11.62
2022-11-26T12:04:32.597Z,11.25
2022-11-26T12:05:32.557Z,11.25
2022-11-26T12:06:32.517Z,9.91
2022-11-26T12:07:32.811Z,11.62
2022-11-26T12:08:32.547Z,10.77
2022-11-26T12:09:32.536Z,10.39
2022-11-26T12:10:35.515Z,10.39
2022-11-26T12:11:32.471Z,10.39
2022-11-26T12:12:32.537Z,10.77
2022-11-26T12:13:32.538Z,10.77
2022-11-26T12:14:32.579Z,9.91
2022-11-26T12:15:32.548Z,10.39
2022-11-26T12:16:32.606Z,9.54
2022-11-26T12:17:33.428Z,9.91
2022-11-26T12:18:32.602Z,10.77
2022-11-26T12:19:32.499Z,10.77
2022-11-26T12:20:32.516Z,9.91
2022-11-26T12:21:32.585Z,8.56
2022-11-26T12:22:32.516Z,10.39
2022-11-26T12:23:32.508Z,9.54
2022-11-26T12:24:32.515Z,9.54
2022-11-26T12:25:36.752Z,8.56
2022-11-26T12:26:32.534Z,9.05
2022-11-26T12:27:32.516Z,8.56
2022-11-26T12:28:32.515Z,9.54
2022-11-26T12:29:32.518Z,9.54
2022-11-26T12:30:32.505Z,9.91
2022-11-26T12:31:32.593Z,7.7
2022-11-26T12:32:32.523Z,8.56
2022-11-26T12:33:32.505Z,7.7
2022-11-26T12:34:32.698Z,8.56
2022-11-26T12:35:32.505Z,7.7
2022-11-26T12:36:32.543Z,7.34
2022-11-26T12:37:32.519Z,8.19
2022-11-26T12:38:32.546Z,8.56
2022-11-26T12:39:32.491Z,7.7
2022-11-26T12:40:32.509Z,8.19
2022-11-26T12:41:32.665Z,7.7
2022-11-26T12:42:32.623Z,8.56
2022-11-26T12:43:32.536Z,7.7
2022-11-26T12:44:32.577Z,7.34
2022-11-26T12:45:32.606Z,6.48
2022-11-26T12:46:32.525Z,5.99
2022-11-26T12:47:32.493Z,6.48
2022-11-26T12:48:32.508Z,7.34
2022-11-26T12:49:32.507Z,6.48
2022-11-26T12:50:35.159Z,5.99
2022-11-26T12:51:32.493Z,6.85
2022-11-26T12:52:32.504Z,6.85
2022-11-26T12:53:32.585Z,7.34
2022-11-26T12:54:32.536Z,6.85
2022-11-26T12:55:32.524Z,5.99
2022-11-26T12:56:32.523Z,5.99
2022-11-26T12:57:32.526Z,7.34
2022-11-26T12:58:32.551Z,5.99
2022-11-26T12:59:32.498Z,5.63
2022-11-26T13:00:35.896Z,5.63
2022-11-26T13:01:32.630Z,6.48
2022-11-26T13:02:32.622Z,5.99
2022-11-26T13:03:32.495Z,6.85
2022-11-26T13:04:49.310Z,6.85
2022-11-26T13:05:32.591Z,5.99
2022-11-26T13:06:32.506Z,5.63
2022-11-26T13:07:32.563Z,3.79
2022-11-26T13:08:32.548Z,5.63
2022-11-26T13:09:32.519Z,5.63
2022-11-26T13:10:32.561Z,5.63
2022-11-26T13:11:32.604Z,5.63
2022-11-26T13:12:32.473Z,5.14
2022-11-26T13:13:32.520Z,4.77
2022-11-26T13:14:32.509Z,5.14
2022-11-26T13:15:32.566Z,4.77
2022-11-26T13:16:32.553Z,4.77
2022-11-26T13:17:32.534Z,5.14
2022-11-26T13:18:32.591Z,4.77
2022-11-26T13:19:32.505Z,4.28
2022-11-26T13:20:32.479Z,4.28
2022-11-26T13:21:32.640Z,3.43
2022-11-26T13:22:32.518Z,3.79
2022-11-26T13:23:32.501Z,2.94
2022-11-26T13:24:32.501Z,3.43
2022-11-26T13:25:32.497Z,3.43
2022-11-26T13:26:32.510Z,2.94
2022-11-26T13:27:32.577Z,2.57
2022-11-26T13:28:32.518Z,2.08
2022-11-26T13:29:32.516Z,2.57
2022-11-26T13:30:32.531Z,2.57
2022-11-26T13:31:32.592Z,2.08
2022-11-26T13:32:32.496Z,0.85
2022-11-26T13:33:32.524Z,2.08
2022-11-26T13:34:32.569Z,1.22
2022-11-26T13:35:32.505Z,0.85
2022-11-26T13:36:32.533Z,0.85
2022-11-26T13:37:32.476Z,1.22
2022-11-26T13:38:32.653Z,0.85
2022-11-26T13:39:32.526Z,0
2022-11-26T13:40:32.482Z,0
2022-11-26T13:41:32.511Z,0
2022-11-26T13:42:32.518Z,0.36
2022-11-26T13:43:32.520Z,0
2022-11-26T13:44:32.591Z,0
2022-11-26T13:45:32.551Z,0
2022-11-26T13:46:32.676Z,0
2022-11-26T13:47:32.501Z,0.36
2022-11-26T13:48:32.499Z,0
2022-11-26T13:49:32.487Z,0
2022-11-26T13:50:32.487Z,0
2022-11-26T13:51:32.508Z,0
2022-11-26T13:52:32.501Z,0
2022-11-26T13:53:32.512Z,0
2022-11-26T13:54:32.568Z,0
2022-11-26T13:55:32.513Z,0
2022-11-26T13:56:32.491Z,0
2022-11-26T13:57:32.547Z,0
2022-11-26T13:58:32.501Z,0
2022-11-26T13:59:32.520Z,0
2022-11-26T14:00:32.459Z,0
2022-11-26T14:01:32.558Z,0
2022-11-26T14:02:32.586Z,0
2022-11-26T14:03:32.518Z,0
2022-11-26T14:04:32.488Z,0
2022-11-26T14:05:32.528Z,0
2022-11-26T14:06:32.504Z,0
2022-11-26T14:07:32.583Z,0
2022-11-26T14:08:32.565Z,0